sensor_id;sensor_type;location;lat;lon;timestamp;P1;durP1;ratioP1;P2;durP2;ratioP2
479;SDS011;226;48.606;9.096;2023-07-22T00:01:51;2.30;;;2.20;;
479;SDS011;226;48.606;9.096;2023-07-22T00:04:23;3.13;;;2.23;;
479;SDS011;226;48.606;9.096;2023-07-22T00:06:54;4.13;;;2.30;;
479;SDS011;226;48.606;9.096;2023-07-22T00:09:28;3.57;;;2.47;;
479;SDS011;226;48.606;9.096;2023-07-22T00:12:04;6.30;;;3.70;;
479;SDS011;226;48.606;9.096;2023-07-22T00:14:38;4.20;;;2.60;;
479;SDS011;226;48.606;9.096;2023-07-22T00:17:12;6.43;;;2.40;;
479;SDS011;226;48.606;9.096;2023-07-22T00:19:42;2.60;;;2.40;;
479;SDS011;226;48.606;9.096;2023-07-22T00:22:16;5.47;;;3.07;;
479;SDS011;226;48.606;9.096;2023-07-22T00:24:52;5.40;;;3.10;;
479;SDS011;226;48.606;9.096;2023-07-22T00:27:25;3.70;;;2.60;;
479;SDS011;226;48.606;9.096;2023-07-22T00:29:58;4.10;;;2.83;;
479;SDS011;226;48.606;9.096;2023-07-22T00:32:32;5.37;;;2.40;;
479;SDS011;226;48.606;9.096;2023-07-22T00:35:07;4.10;;;2.53;;
479;SDS011;226;48.606;9.096;2023-07-22T00:37:41;4.57;;;2.53;;
479;SDS011;226;48.606;9.096;2023-07-22T00:40:15;3.73;;;2.73;;
479;SDS011;226;48.606;9.096;2023-07-22T00:42:50;3.27;;;1.87;;
479;SDS011;226;48.606;9.096;2023-07-22T00:45:25;5.53;;;2.70;;
479;SDS011;226;48.606;9.096;2023-07-22T00:47:57;7.50;;;3.00;;
479;SDS011;226;48.606;9.096;2023-07-22T00:50:30;4.27;;;3.47;;
479;SDS011;226;48.606;9.096;2023-07-22T00:53:05;5.23;;;2.57;;
479;SDS011;226;48.606;9.096;2023-07-22T00:55:39;2.80;;;2.50;;
479;SDS011;226;48.606;9.096;2023-07-22T00:58:13;2.47;;;2.27;;
479;SDS011;226;48.606;9.096;2023-07-22T01:00:46;4.63;;;2.77;;
479;SDS011;226;48.606;9.096;2023-07-22T01:03:19;3.40;;;2.40;;
479;SDS011;226;48.606;9.096;2023-07-22T01:05:52;2.93;;;2.73;;
479;SDS011;226;48.606;9.096;2023-07-22T01:08:21;3.63;;;2.80;;
479;SDS011;226;48.606;9.096;2023-07-22T01:10:50;5.50;;;2.80;;
479;SDS011;226;48.606;9.096;2023-07-22T01:13:23;2.93;;;2.63;;
479;SDS011;226;48.606;9.096;2023-07-22T01:15:57;3.47;;;3.00;;
479;SDS011;226;48.606;9.096;2023-07-22T01:18:30;11.63;;;2.80;;
479;SDS011;226;48.606;9.096;2023-07-22T01:20:59;2.57;;;2.37;;
479;SDS011;226;48.606;9.096;2023-07-22T01:23:34;2.97;;;2.40;;
479;SDS011;226;48.606;9.096;2023-07-22T01:26:07;4.60;;;2.33;;
479;SDS011;226;48.606;9.096;2023-07-22T01:28:41;5.37;;;2.50;;
479;SDS011;226;48.606;9.096;2023-07-22T01:31:14;4.57;;;2.80;;
479;SDS011;226;48.606;9.096;2023-07-22T01:33:48;3.23;;;2.40;;
479;SDS011;226;48.606;9.096;2023-07-22T01:36:20;2.87;;;2.50;;
479;SDS011;226;48.606;9.096;2023-07-22T01:38:55;3.53;;;2.40;;
479;SDS011;226;48.606;9.096;2023-07-22T01:41:32;7.70;;;3.20;;
479;SDS011;226;48.606;9.096;2023-07-22T01:44:05;4.40;;;2.43;;
479;SDS011;226;48.606;9.096;2023-07-22T01:46:37;11.03;;;3.27;;
479;SDS011;226;48.606;9.096;2023-07-22T01:49:10;6.03;;;2.70;;
479;SDS011;226;48.606;9.096;2023-07-22T01:51:42;12.63;;;3.30;;
479;SDS011;226;48.606;9.096;2023-07-22T01:54:15;3.10;;;2.80;;
479;SDS011;226;48.606;9.096;2023-07-22T01:56:47;5.90;;;2.60;;
479;SDS011;226;48.606;9.096;2023-07-22T01:59:18;4.50;;;2.80;;
479;SDS011;226;48.606;9.096;2023-07-22T02:01:47;4.57;;;2.80;;
479;SDS011;226;48.606;9.096;2023-07-22T02:04:18;3.50;;;2.93;;
479;SDS011;226;48.606;9.096;2023-07-22T02:06:50;3.60;;;2.67;;
479;SDS011;226;48.606;9.096;2023-07-22T02:09:23;5.53;;;2.30;;
479;SDS011;226;48.606;9.096;2023-07-22T02:11:54;2.53;;;2.30;;
479;SDS011;226;48.606;9.096;2023-07-22T02:14:26;3.83;;;2.97;;
479;SDS011;226;48.606;9.096;2023-07-22T02:16:58;3.37;;;2.97;;
479;SDS011;226;48.606;9.096;2023-07-22T02:19:29;3.57;;;2.33;;
479;SDS011;226;48.606;9.096;2023-07-22T02:22:00;6.40;;;3.13;;
479;SDS011;226;48.606;9.096;2023-07-22T02:24:33;2.60;;;2.40;;
479;SDS011;226;48.606;9.096;2023-07-22T02:27:05;3.67;;;2.60;;
479;SDS011;226;48.606;9.096;2023-07-22T02:29:37;3.50;;;2.20;;
479;SDS011;226;48.606;9.096;2023-07-22T02:32:08;3.57;;;3.03;;
479;SDS011;226;48.606;9.096;2023-07-22T02:34:40;4.50;;;2.40;;
479;SDS011;226;48.606;9.096;2023-07-22T02:37:12;3.97;;;2.77;;
479;SDS011;226;48.606;9.096;2023-07-22T02:39:44;8.00;;;2.40;;
479;SDS011;226;48.606;9.096;2023-07-22T02:42:14;3.20;;;2.27;;
479;SDS011;226;48.606;9.096;2023-07-22T02:44:45;4.93;;;2.60;;
479;SDS011;226;48.606;9.096;2023-07-22T02:47:16;3.30;;;3.03;;
479;SDS011;226;48.606;9.096;2023-07-22T02:49:45;3.87;;;2.57;;
479;SDS011;226;48.606;9.096;2023-07-22T02:52:17;2.93;;;2.30;;
479;SDS011;226;48.606;9.096;2023-07-22T02:57:41;6.77;;;3.00;;
479;SDS011;226;48.606;9.096;2023-07-22T03:00:13;3.30;;;2.70;;
479;SDS011;226;48.606;9.096;2023-07-22T03:02:50;3.70;;;3.10;;
479;SDS011;226;48.606;9.096;2023-07-22T03:05:27;2.63;;;2.43;;
479;SDS011;226;48.606;9.096;2023-07-22T03:08:00;3.10;;;2.43;;
479;SDS011;226;48.606;9.096;2023-07-22T03:10:31;5.23;;;2.57;;
479;SDS011;226;48.606;9.096;2023-07-22T03:13:04;4.10;;;2.93;;
479;SDS011;226;48.606;9.096;2023-07-22T03:15:35;4.40;;;2.87;;
479;SDS011;226;48.606;9.096;2023-07-22T03:18:07;4.27;;;2.77;;
479;SDS011;226;48.606;9.096;2023-07-22T03:20:36;2.70;;;2.50;;
479;SDS011;226;48.606;9.096;2023-07-22T03:23:07;3.27;;;2.97;;
479;SDS011;226;48.606;9.096;2023-07-22T03:25:37;4.43;;;2.90;;
479;SDS011;226;48.606;9.096;2023-07-22T03:28:10;3.40;;;2.97;;
479;SDS011;226;48.606;9.096;2023-07-22T03:30:41;2.80;;;2.40;;
479;SDS011;226;48.606;9.096;2023-07-22T03:33:12;3.77;;;2.70;;
479;SDS011;226;48.606;9.096;2023-07-22T03:35:42;4.27;;;3.27;;
479;SDS011;226;48.606;9.096;2023-07-22T03:38:11;4.10;;;2.50;;
479;SDS011;226;48.606;9.096;2023-07-22T03:40:41;6.33;;;2.80;;
479;SDS011;226;48.606;9.096;2023-07-22T03:43:11;3.33;;;2.63;;
479;SDS011;226;48.606;9.096;2023-07-22T03:45:41;4.23;;;2.60;;
479;SDS011;226;48.606;9.096;2023-07-22T03:48:10;6.03;;;3.27;;
479;SDS011;226;48.606;9.096;2023-07-22T03:50:38;3.77;;;2.83;;
479;SDS011;226;48.606;9.096;2023-07-22T03:53:08;2.77;;;2.50;;
479;SDS011;226;48.606;9.096;2023-07-22T03:55:37;2.50;;;2.40;;
479;SDS011;226;48.606;9.096;2023-07-22T03:58:06;4.50;;;3.13;;
479;SDS011;226;48.606;9.096;2023-07-22T04:00:37;3.70;;;2.73;;
479;SDS011;226;48.606;9.096;2023-07-22T04:03:07;4.30;;;2.97;;
479;SDS011;226;48.606;9.096;2023-07-22T04:05:36;3.20;;;2.90;;
479;SDS011;226;48.606;9.096;2023-07-22T04:08:05;4.77;;;2.80;;
479;SDS011;226;48.606;9.096;2023-07-22T04:10:33;3.73;;;2.87;;
479;SDS011;226;48.606;9.096;2023-07-22T04:13:01;3.40;;;3.00;;
479;SDS011;226;48.606;9.096;2023-07-22T04:15:30;4.40;;;3.00;;
479;SDS011;226;48.606;9.096;2023-07-22T04:17:59;4.27;;;3.60;;
479;SDS011;226;48.606;9.096;2023-07-22T04:20:28;10.87;;;3.50;;
479;SDS011;226;48.606;9.096;2023-07-22T04:22:56;6.03;;;2.77;;
479;SDS011;226;48.606;9.096;2023-07-22T04:25:25;3.67;;;2.70;;
479;SDS011;226;48.606;9.096;2023-07-22T04:27:53;3.47;;;3.10;;
479;SDS011;226;48.606;9.096;2023-07-22T04:30:22;6.80;;;2.63;;
479;SDS011;226;48.606;9.096;2023-07-22T04:32:50;7.70;;;4.23;;
479;SDS011;226;48.606;9.096;2023-07-22T04:35:20;4.40;;;2.57;;
479;SDS011;226;48.606;9.096;2023-07-22T04:37:49;5.70;;;2.87;;
479;SDS011;226;48.606;9.096;2023-07-22T04:40:18;4.23;;;2.50;;
479;SDS011;226;48.606;9.096;2023-07-22T04:42:47;4.27;;;2.40;;
479;SDS011;226;48.606;9.096;2023-07-22T04:45:15;6.97;;;4.13;;
479;SDS011;226;48.606;9.096;2023-07-22T04:47:44;3.40;;;2.33;;
479;SDS011;226;48.606;9.096;2023-07-22T04:50:15;6.73;;;2.70;;
479;SDS011;226;48.606;9.096;2023-07-22T04:52:49;2.50;;;2.30;;
479;SDS011;226;48.606;9.096;2023-07-22T04:55:18;2.80;;;2.40;;
479;SDS011;226;48.606;9.096;2023-07-22T04:57:46;5.33;;;3.20;;
479;SDS011;226;48.606;9.096;2023-07-22T05:00:14;4.50;;;2.83;;
479;SDS011;226;48.606;9.096;2023-07-22T05:02:43;4.20;;;2.80;;
479;SDS011;226;48.606;9.096;2023-07-22T05:05:12;4.73;;;2.67;;
479;SDS011;226;48.606;9.096;2023-07-22T05:07:40;3.67;;;3.37;;
479;SDS011;226;48.606;9.096;2023-07-22T05:10:10;2.83;;;2.30;;
479;SDS011;226;48.606;9.096;2023-07-22T05:12:40;5.63;;;2.70;;
479;SDS011;226;48.606;9.096;2023-07-22T05:15:09;3.67;;;3.00;;
479;SDS011;226;48.606;9.096;2023-07-22T05:17:38;4.13;;;2.20;;
479;SDS011;226;48.606;9.096;2023-07-22T05:20:07;5.20;;;2.80;;
479;SDS011;226;48.606;9.096;2023-07-22T05:22:37;3.10;;;2.80;;
479;SDS011;226;48.606;9.096;2023-07-22T05:25:05;3.43;;;2.37;;
479;SDS011;226;48.606;9.096;2023-07-22T05:27:36;4.07;;;3.00;;
479;SDS011;226;48.606;9.096;2023-07-22T05:30:04;3.70;;;2.60;;
479;SDS011;226;48.606;9.096;2023-07-22T05:32:51;3.13;;;2.33;;
479;SDS011;226;48.606;9.096;2023-07-22T05:35:19;3.90;;;2.73;;
479;SDS011;226;48.606;9.096;2023-07-22T05:37:47;4.27;;;2.60;;
479;SDS011;226;48.606;9.096;2023-07-22T05:40:16;3.87;;;2.60;;
479;SDS011;226;48.606;9.096;2023-07-22T05:42:45;6.17;;;2.83;;
479;SDS011;226;48.606;9.096;2023-07-22T05:45:13;4.80;;;3.00;;
479;SDS011;226;48.606;9.096;2023-07-22T05:47:42;3.03;;;2.40;;
479;SDS011;226;48.606;9.096;2023-07-22T05:50:11;3.33;;;2.70;;
479;SDS011;226;48.606;9.096;2023-07-22T05:52:39;5.70;;;2.57;;
479;SDS011;226;48.606;9.096;2023-07-22T05:55:07;4.03;;;2.83;;
479;SDS011;226;48.606;9.096;2023-07-22T05:57:36;2.63;;;2.43;;
479;SDS011;226;48.606;9.096;2023-07-22T06:00:06;2.53;;;2.33;;
479;SDS011;226;48.606;9.096;2023-07-22T06:02:36;3.00;;;2.60;;
479;SDS011;226;48.606;9.096;2023-07-22T06:05:04;5.77;;;2.90;;
479;SDS011;226;48.606;9.096;2023-07-22T06:07:32;3.30;;;2.90;;
479;SDS011;226;48.606;9.096;2023-07-22T06:10:00;2.40;;;2.20;;
479;SDS011;226;48.606;9.096;2023-07-22T06:12:29;2.90;;;2.33;;
479;SDS011;226;48.606;9.096;2023-07-22T06:14:57;4.93;;;2.90;;
479;SDS011;226;48.606;9.096;2023-07-22T06:17:26;3.43;;;2.33;;
479;SDS011;226;48.606;9.096;2023-07-22T06:19:54;3.37;;;2.87;;
479;SDS011;226;48.606;9.096;2023-07-22T06:22:22;3.70;;;2.83;;
479;SDS011;226;48.606;9.096;2023-07-22T06:24:51;4.20;;;2.67;;
479;SDS011;226;48.606;9.096;2023-07-22T06:27:19;5.70;;;2.57;;
479;SDS011;226;48.606;9.096;2023-07-22T06:29:47;4.20;;;2.40;;
479;SDS011;226;48.606;9.096;2023-07-22T06:32:15;7.80;;;2.63;;
479;SDS011;226;48.606;9.096;2023-07-22T06:34:44;2.33;;;2.10;;
479;SDS011;226;48.606;9.096;2023-07-22T06:37:13;3.90;;;2.50;;
479;SDS011;226;48.606;9.096;2023-07-22T06:39:41;2.47;;;1.80;;
479;SDS011;226;48.606;9.096;2023-07-22T06:42:09;3.10;;;2.40;;
479;SDS011;226;48.606;9.096;2023-07-22T06:44:38;2.20;;;2.00;;
479;SDS011;226;48.606;9.096;2023-07-22T06:47:06;2.90;;;2.23;;
479;SDS011;226;48.606;9.096;2023-07-22T06:49:35;3.00;;;2.70;;
479;SDS011;226;48.606;9.096;2023-07-22T06:52:06;3.27;;;2.20;;
479;SDS011;226;48.606;9.096;2023-07-22T06:54:36;2.07;;;1.83;;
479;SDS011;226;48.606;9.096;2023-07-22T06:57:04;2.07;;;1.87;;
479;SDS011;226;48.606;9.096;2023-07-22T06:59:33;2.60;;;2.30;;
479;SDS011;226;48.606;9.096;2023-07-22T07:02:02;4.67;;;3.60;;
479;SDS011;226;48.606;9.096;2023-07-22T07:04:32;2.00;;;1.90;;
479;SDS011;226;48.606;9.096;2023-07-22T07:07:00;2.60;;;2.40;;
479;SDS011;226;48.606;9.096;2023-07-22T07:09:31;4.93;;;2.40;;
479;SDS011;226;48.606;9.096;2023-07-22T07:12:00;4.37;;;2.20;;
479;SDS011;226;48.606;9.096;2023-07-22T07:14:29;3.20;;;2.20;;
479;SDS011;226;48.606;9.096;2023-07-22T07:16:57;2.77;;;2.20;;
479;SDS011;226;48.606;9.096;2023-07-22T07:19:25;2.97;;;2.47;;
479;SDS011;226;48.606;9.096;2023-07-22T07:21:54;2.63;;;2.10;;
479;SDS011;226;48.606;9.096;2023-07-22T07:24:23;2.20;;;1.70;;
479;SDS011;226;48.606;9.096;2023-07-22T07:26:55;6.23;;;2.30;;
479;SDS011;226;48.606;9.096;2023-07-22T07:29:24;4.40;;;2.10;;
479;SDS011;226;48.606;9.096;2023-07-22T07:32:14;2.43;;;1.93;;
479;SDS011;226;48.606;9.096;2023-07-22T07:34:45;2.97;;;2.07;;
479;SDS011;226;48.606;9.096;2023-07-22T07:37:15;2.10;;;1.87;;
479;SDS011;226;48.606;9.096;2023-07-22T07:39:44;2.10;;;1.90;;
479;SDS011;226;48.606;9.096;2023-07-22T07:42:15;2.23;;;1.83;;
479;SDS011;226;48.606;9.096;2023-07-22T07:44:44;4.30;;;1.93;;
479;SDS011;226;48.606;9.096;2023-07-22T07:47:13;2.03;;;1.93;;
479;SDS011;226;48.606;9.096;2023-07-22T07:49:42;1.93;;;1.83;;
479;SDS011;226;48.606;9.096;2023-07-22T07:52:11;2.20;;;2.00;;
479;SDS011;226;48.606;9.096;2023-07-22T07:54:40;2.30;;;2.10;;
479;SDS011;226;48.606;9.096;2023-07-22T07:57:09;3.40;;;2.57;;
479;SDS011;226;48.606;9.096;2023-07-22T07:59:38;3.10;;;2.10;;
479;SDS011;226;48.606;9.096;2023-07-22T08:02:07;3.33;;;2.23;;
479;SDS011;226;48.606;9.096;2023-07-22T08:04:36;4.93;;;2.20;;
479;SDS011;226;48.606;9.096;2023-07-22T08:07:05;2.40;;;1.53;;
479;SDS011;226;48.606;9.096;2023-07-22T08:09:34;1.90;;;1.80;;
479;SDS011;226;48.606;9.096;2023-07-22T08:12:03;4.47;;;1.70;;
479;SDS011;226;48.606;9.096;2023-07-22T08:14:31;1.80;;;1.70;;
479;SDS011;226;48.606;9.096;2023-07-22T08:17:01;1.67;;;1.40;;
479;SDS011;226;48.606;9.096;2023-07-22T08:19:30;2.20;;;2.07;;
479;SDS011;226;48.606;9.096;2023-07-22T08:21:58;2.50;;;2.00;;
479;SDS011;226;48.606;9.096;2023-07-22T08:24:26;2.30;;;1.70;;
479;SDS011;226;48.606;9.096;2023-07-22T08:26:54;1.90;;;1.50;;
479;SDS011;226;48.606;9.096;2023-07-22T08:29:22;2.13;;;1.93;;
479;SDS011;226;48.606;9.096;2023-07-22T08:31:50;4.97;;;2.60;;
479;SDS011;226;48.606;9.096;2023-07-22T08:34:20;2.50;;;2.13;;
479;SDS011;226;48.606;9.096;2023-07-22T08:36:48;5.10;;;2.90;;
479;SDS011;226;48.606;9.096;2023-07-22T08:39:16;1.50;;;1.33;;
479;SDS011;226;48.606;9.096;2023-07-22T08:41:45;1.93;;;1.80;;
479;SDS011;226;48.606;9.096;2023-07-22T08:44:17;1.90;;;1.80;;
479;SDS011;226;48.606;9.096;2023-07-22T08:46:50;2.27;;;2.07;;
479;SDS011;226;48.606;9.096;2023-07-22T08:49:24;2.30;;;1.80;;
479;SDS011;226;48.606;9.096;2023-07-22T08:51:54;2.27;;;2.07;;
479;SDS011;226;48.606;9.096;2023-07-22T08:54:23;3.27;;;1.60;;
479;SDS011;226;48.606;9.096;2023-07-22T08:56:51;1.93;;;1.40;;
479;SDS011;226;48.606;9.096;2023-07-22T08:59:20;4.67;;;2.03;;
479;SDS011;226;48.606;9.096;2023-07-22T09:01:48;2.30;;;2.07;;
479;SDS011;226;48.606;9.096;2023-07-22T09:04:18;2.10;;;1.87;;
479;SDS011;226;48.606;9.096;2023-07-22T09:06:48;2.63;;;1.83;;
479;SDS011;226;48.606;9.096;2023-07-22T09:09:17;2.50;;;1.80;;
479;SDS011;226;48.606;9.096;2023-07-22T09:11:46;3.30;;;2.07;;
479;SDS011;226;48.606;9.096;2023-07-22T09:14:15;11.23;;;2.43;;
479;SDS011;226;48.606;9.096;2023-07-22T09:17:03;2.00;;;1.80;;
479;SDS011;226;48.606;9.096;2023-07-22T09:19:32;1.87;;;1.70;;
479;SDS011;226;48.606;9.096;2023-07-22T09:22:01;1.17;;;1.10;;
479;SDS011;226;48.606;9.096;2023-07-22T09:24:29;2.33;;;2.00;;
479;SDS011;226;48.606;9.096;2023-07-22T09:26:58;1.80;;;1.70;;
479;SDS011;226;48.606;9.096;2023-07-22T09:29:33;2.30;;;1.67;;
479;SDS011;226;48.606;9.096;2023-07-22T09:32:02;2.23;;;1.73;;
479;SDS011;226;48.606;9.096;2023-07-22T09:34:30;1.70;;;1.53;;
479;SDS011;226;48.606;9.096;2023-07-22T09:36:59;1.53;;;1.40;;
479;SDS011;226;48.606;9.096;2023-07-22T09:39:29;1.60;;;1.50;;
479;SDS011;226;48.606;9.096;2023-07-22T09:41:57;2.40;;;1.40;;
479;SDS011;226;48.606;9.096;2023-07-22T09:44:29;1.90;;;1.30;;
479;SDS011;226;48.606;9.096;2023-07-22T09:46:59;1.50;;;1.23;;
479;SDS011;226;48.606;9.096;2023-07-22T09:49:34;2.10;;;1.13;;
479;SDS011;226;48.606;9.096;2023-07-22T09:52:08;2.40;;;1.73;;
479;SDS011;226;48.606;9.096;2023-07-22T09:54:47;1.50;;;1.40;;
479;SDS011;226;48.606;9.096;2023-07-22T09:57:17;1.40;;;1.30;;
479;SDS011;226;48.606;9.096;2023-07-22T09:59:45;2.03;;;1.43;;
479;SDS011;226;48.606;9.096;2023-07-22T10:02:16;1.37;;;1.20;;
479;SDS011;226;48.606;9.096;2023-07-22T10:04:45;2.40;;;1.10;;
479;SDS011;226;48.606;9.096;2023-07-22T10:07:16;3.23;;;1.43;;
479;SDS011;226;48.606;9.096;2023-07-22T10:09:46;1.63;;;1.53;;
479;SDS011;226;48.606;9.096;2023-07-22T10:12:15;1.67;;;1.10;;
479;SDS011;226;48.606;9.096;2023-07-22T10:14:43;2.77;;;1.30;;
479;SDS011;226;48.606;9.096;2023-07-22T10:17:13;1.73;;;1.33;;
479;SDS011;226;48.606;9.096;2023-07-22T10:19:43;1.40;;;1.30;;
479;SDS011;226;48.606;9.096;2023-07-22T10:22:11;2.43;;;1.70;;
479;SDS011;226;48.606;9.096;2023-07-22T10:24:40;2.67;;;1.30;;
479;SDS011;226;48.606;9.096;2023-07-22T10:27:10;1.50;;;1.40;;
479;SDS011;226;48.606;9.096;2023-07-22T10:29:39;2.70;;;1.50;;
479;SDS011;226;48.606;9.096;2023-07-22T10:32:07;3.00;;;1.90;;
479;SDS011;226;48.606;9.096;2023-07-22T10:34:35;1.27;;;1.23;;
479;SDS011;226;48.606;9.096;2023-07-22T10:37:03;1.97;;;1.60;;
479;SDS011;226;48.606;9.096;2023-07-22T10:39:32;1.70;;;1.60;;
479;SDS011;226;48.606;9.096;2023-07-22T10:42:00;5.60;;;1.43;;
479;SDS011;226;48.606;9.096;2023-07-22T10:44:32;1.30;;;1.20;;
479;SDS011;226;48.606;9.096;2023-07-22T10:47:03;2.70;;;1.77;;
479;SDS011;226;48.606;9.096;2023-07-22T10:49:43;1.60;;;1.50;;
479;SDS011;226;48.606;9.096;2023-07-22T10:52:12;1.80;;;1.40;;
479;SDS011;226;48.606;9.096;2023-07-22T10:54:41;2.13;;;1.30;;
479;SDS011;226;48.606;9.096;2023-07-22T10:57:22;1.60;;;1.10;;
479;SDS011;226;48.606;9.096;2023-07-22T10:59:53;1.50;;;1.40;;
479;SDS011;226;48.606;9.096;2023-07-22T11:02:23;1.47;;;1.33;;
479;SDS011;226;48.606;9.096;2023-07-22T11:04:53;3.90;;;1.50;;
479;SDS011;226;48.606;9.096;2023-07-22T11:07:31;2.73;;;1.70;;
479;SDS011;226;48.606;9.096;2023-07-22T11:10:13;5.13;;;2.47;;
479;SDS011;226;48.606;9.096;2023-07-22T11:12:44;2.10;;;1.50;;
479;SDS011;226;48.606;9.096;2023-07-22T11:15:15;4.70;;;1.80;;
479;SDS011;226;48.606;9.096;2023-07-22T11:17:44;2.73;;;1.50;;
479;SDS011;226;48.606;9.096;2023-07-22T11:20:12;3.90;;;1.37;;
479;SDS011;226;48.606;9.096;2023-07-22T11:22:41;4.00;;;1.80;;
479;SDS011;226;48.606;9.096;2023-07-22T11:25:16;1.60;;;1.30;;
479;SDS011;226;48.606;9.096;2023-07-22T11:27:45;3.10;;;1.97;;
479;SDS011;226;48.606;9.096;2023-07-22T11:30:13;3.40;;;1.70;;
479;SDS011;226;48.606;9.096;2023-07-22T11:32:43;1.90;;;1.80;;
479;SDS011;226;48.606;9.096;2023-07-22T11:35:15;2.03;;;1.80;;
479;SDS011;226;48.606;9.096;2023-07-22T11:37:44;3.83;;;2.07;;
479;SDS011;226;48.606;9.096;2023-07-22T11:40:12;1.73;;;1.40;;
479;SDS011;226;48.606;9.096;2023-07-22T11:42:41;1.40;;;1.30;;
479;SDS011;226;48.606;9.096;2023-07-22T11:45:11;3.67;;;2.07;;
479;SDS011;226;48.606;9.096;2023-07-22T11:47:42;2.20;;;1.53;;
479;SDS011;226;48.606;9.096;2023-07-22T11:50:11;2.13;;;1.50;;
479;SDS011;226;48.606;9.096;2023-07-22T11:52:39;3.87;;;1.53;;
479;SDS011;226;48.606;9.096;2023-07-22T11:55:08;1.50;;;1.40;;
479;SDS011;226;48.606;9.096;2023-07-22T11:57:51;3.57;;;1.40;;
479;SDS011;226;48.606;9.096;2023-07-22T12:00:20;2.30;;;1.43;;
479;SDS011;226;48.606;9.096;2023-07-22T12:02:50;1.83;;;1.73;;
479;SDS011;226;48.606;9.096;2023-07-22T12:05:23;2.93;;;1.70;;
479;SDS011;226;48.606;9.096;2023-07-22T12:07:51;3.07;;;1.77;;
479;SDS011;226;48.606;9.096;2023-07-22T12:10:19;2.07;;;1.87;;
479;SDS011;226;48.606;9.096;2023-07-22T12:12:51;2.00;;;1.80;;
479;SDS011;226;48.606;9.096;2023-07-22T12:15:20;1.70;;;1.60;;
479;SDS011;226;48.606;9.096;2023-07-22T12:17:51;4.30;;;2.27;;
479;SDS011;226;48.606;9.096;2023-07-22T12:20:23;3.47;;;1.87;;
479;SDS011;226;48.606;9.096;2023-07-22T12:22:52;2.70;;;2.07;;
479;SDS011;226;48.606;9.096;2023-07-22T12:25:20;3.17;;;2.33;;
479;SDS011;226;48.606;9.096;2023-07-22T12:27:48;1.90;;;1.57;;
479;SDS011;226;48.606;9.096;2023-07-22T12:30:17;2.67;;;2.00;;
479;SDS011;226;48.606;9.096;2023-07-22T12:32:46;2.20;;;1.50;;
479;SDS011;226;48.606;9.096;2023-07-22T12:35:16;5.17;;;1.47;;
479;SDS011;226;48.606;9.096;2023-07-22T12:37:44;1.70;;;1.60;;
479;SDS011;226;48.606;9.096;2023-07-22T12:40:13;2.70;;;1.70;;
479;SDS011;226;48.606;9.096;2023-07-22T12:42:41;3.77;;;3.10;;
479;SDS011;226;48.606;9.096;2023-07-22T12:45:09;4.10;;;1.97;;
479;SDS011;226;48.606;9.096;2023-07-22T12:47:38;1.43;;;1.30;;
479;SDS011;226;48.606;9.096;2023-07-22T12:50:06;1.80;;;1.67;;
479;SDS011;226;48.606;9.096;2023-07-22T12:52:36;1.83;;;1.63;;
479;SDS011;226;48.606;9.096;2023-07-22T12:55:04;3.03;;;1.63;;
479;SDS011;226;48.606;9.096;2023-07-22T12:57:33;4.33;;;2.90;;
479;SDS011;226;48.606;9.096;2023-07-22T13:00:01;1.90;;;1.70;;
479;SDS011;226;48.606;9.096;2023-07-22T13:02:35;4.13;;;2.40;;
479;SDS011;226;48.606;9.096;2023-07-22T13:05:04;4.23;;;2.10;;
479;SDS011;226;48.606;9.096;2023-07-22T13:07:33;2.77;;;1.80;;
479;SDS011;226;48.606;9.096;2023-07-22T13:10:03;1.90;;;1.50;;
479;SDS011;226;48.606;9.096;2023-07-22T13:12:37;2.57;;;1.80;;
479;SDS011;226;48.606;9.096;2023-07-22T13:15:05;4.43;;;1.73;;
479;SDS011;226;48.606;9.096;2023-07-22T13:17:34;2.40;;;1.83;;
479;SDS011;226;48.606;9.096;2023-07-22T13:20:03;3.27;;;2.10;;
479;SDS011;226;48.606;9.096;2023-07-22T13:22:33;1.87;;;1.50;;
479;SDS011;226;48.606;9.096;2023-07-22T13:25:02;2.90;;;1.73;;
479;SDS011;226;48.606;9.096;2023-07-22T13:27:31;2.80;;;1.50;;
479;SDS011;226;48.606;9.096;2023-07-22T13:30:00;2.13;;;1.90;;
479;SDS011;226;48.606;9.096;2023-07-22T13:32:28;3.47;;;1.90;;
479;SDS011;226;48.606;9.096;2023-07-22T13:34:56;3.10;;;2.00;;
479;SDS011;226;48.606;9.096;2023-07-22T13:37:24;7.07;;;1.87;;
479;SDS011;226;48.606;9.096;2023-07-22T13:39:53;2.90;;;1.93;;
479;SDS011;226;48.606;9.096;2023-07-22T13:42:23;2.30;;;2.10;;
479;SDS011;226;48.606;9.096;2023-07-22T13:44:51;1.70;;;1.60;;
479;SDS011;226;48.606;9.096;2023-07-22T13:47:19;2.20;;;1.83;;
479;SDS011;226;48.606;9.096;2023-07-22T13:49:47;2.50;;;1.93;;
479;SDS011;226;48.606;9.096;2023-07-22T13:52:16;2.70;;;2.20;;
479;SDS011;226;48.606;9.096;2023-07-22T13:54:44;2.50;;;1.70;;
479;SDS011;226;48.606;9.096;2023-07-22T13:57:12;2.83;;;2.20;;
479;SDS011;226;48.606;9.096;2023-07-22T13:59:42;5.30;;;2.50;;
479;SDS011;226;48.606;9.096;2023-07-22T14:02:10;2.47;;;2.00;;
479;SDS011;226;48.606;9.096;2023-07-22T14:04:38;3.13;;;1.97;;
479;SDS011;226;48.606;9.096;2023-07-22T14:07:06;5.70;;;2.00;;
479;SDS011;226;48.606;9.096;2023-07-22T14:09:34;2.43;;;1.87;;
479;SDS011;226;48.606;9.096;2023-07-22T14:12:03;2.37;;;2.00;;
479;SDS011;226;48.606;9.096;2023-07-22T14:14:31;3.47;;;2.30;;
479;SDS011;226;48.606;9.096;2023-07-22T14:17:02;2.50;;;2.07;;
479;SDS011;226;48.606;9.096;2023-07-22T14:19:31;2.13;;;1.93;;
479;SDS011;226;48.606;9.096;2023-07-22T14:21:59;3.37;;;2.20;;
479;SDS011;226;48.606;9.096;2023-07-22T14:24:27;3.90;;;1.87;;
479;SDS011;226;48.606;9.096;2023-07-22T14:27:00;2.57;;;2.00;;
479;SDS011;226;48.606;9.096;2023-07-22T14:29:30;5.30;;;1.80;;
479;SDS011;226;48.606;9.096;2023-07-22T14:32:04;5.77;;;2.03;;
479;SDS011;226;48.606;9.096;2023-07-22T14:34:35;3.27;;;2.40;;
479;SDS011;226;48.606;9.096;2023-07-22T14:37:03;3.77;;;2.00;;
479;SDS011;226;48.606;9.096;2023-07-22T14:39:34;3.73;;;1.77;;
479;SDS011;226;48.606;9.096;2023-07-22T14:42:02;1.73;;;1.63;;
479;SDS011;226;48.606;9.096;2023-07-22T14:44:31;3.60;;;1.90;;
479;SDS011;226;48.606;9.096;2023-07-22T14:46:59;1.93;;;1.73;;
479;SDS011;226;48.606;9.096;2023-07-22T14:49:29;2.83;;;2.40;;
479;SDS011;226;48.606;9.096;2023-07-22T14:51:57;2.20;;;2.00;;
479;SDS011;226;48.606;9.096;2023-07-22T14:54:26;5.73;;;2.00;;
479;SDS011;226;48.606;9.096;2023-07-22T14:56:54;6.97;;;2.50;;
479;SDS011;226;48.606;9.096;2023-07-22T14:59:23;3.30;;;2.13;;
479;SDS011;226;48.606;9.096;2023-07-22T15:01:52;5.90;;;2.10;;
479;SDS011;226;48.606;9.096;2023-07-22T15:04:21;4.80;;;1.77;;
479;SDS011;226;48.606;9.096;2023-07-22T15:06:50;1.40;;;1.30;;
479;SDS011;226;48.606;9.096;2023-07-22T15:09:19;4.27;;;2.13;;
479;SDS011;226;48.606;9.096;2023-07-22T15:11:47;7.03;;;2.40;;
479;SDS011;226;48.606;9.096;2023-07-22T15:14:16;4.43;;;2.47;;
479;SDS011;226;48.606;9.096;2023-07-22T15:16:44;2.90;;;2.33;;
479;SDS011;226;48.606;9.096;2023-07-22T15:19:13;3.30;;;2.00;;
479;SDS011;226;48.606;9.096;2023-07-22T15:21:41;3.70;;;1.93;;
479;SDS011;226;48.606;9.096;2023-07-22T15:24:11;2.43;;;2.23;;
479;SDS011;226;48.606;9.096;2023-07-22T15:26:40;3.80;;;2.40;;
479;SDS011;226;48.606;9.096;2023-07-22T15:29:08;3.37;;;2.50;;
479;SDS011;226;48.606;9.096;2023-07-22T15:31:37;3.00;;;2.13;;
479;SDS011;226;48.606;9.096;2023-07-22T15:34:05;4.30;;;2.33;;
479;SDS011;226;48.606;9.096;2023-07-22T15:36:34;3.07;;;1.93;;
479;SDS011;226;48.606;9.096;2023-07-22T15:39:02;2.27;;;1.83;;
479;SDS011;226;48.606;9.096;2023-07-22T15:41:32;2.90;;;1.80;;
479;SDS011;226;48.606;9.096;2023-07-22T15:44:00;1.97;;;1.70;;
479;SDS011;226;48.606;9.096;2023-07-22T15:46:29;2.70;;;2.20;;
479;SDS011;226;48.606;9.096;2023-07-22T15:48:57;2.40;;;2.20;;
479;SDS011;226;48.606;9.096;2023-07-22T15:51:26;2.73;;;1.90;;
479;SDS011;226;48.606;9.096;2023-07-22T15:53:55;2.97;;;1.67;;
479;SDS011;226;48.606;9.096;2023-07-22T15:56:23;3.40;;;2.07;;
479;SDS011;226;48.606;9.096;2023-07-22T15:58:53;2.30;;;1.83;;
479;SDS011;226;48.606;9.096;2023-07-22T16:01:22;6.27;;;2.30;;
479;SDS011;226;48.606;9.096;2023-07-22T16:03:51;5.73;;;2.40;;
479;SDS011;226;48.606;9.096;2023-07-22T16:06:19;3.73;;;2.17;;